createdAt,value
2022-12-04T00:03:58.976Z,98.03
2022-12-04T00:08:51.284Z,98.13
2022-12-04T00:13:43.677Z,98.37
2022-12-04T00:18:35.785Z,98.05
2022-12-04T00:23:27.458Z,98.27
2022-12-04T00:28:19.444Z,97.88
2022-12-04T00:33:12.631Z,97.93
2022-12-04T00:38:04.369Z,98.59
2022-12-04T00:42:56.121Z,97.96
2022-12-04T00:47:47.815Z,98.14
2022-12-04T00:52:39.775Z,97.71
2022-12-04T00:57:31.706Z,98.41
2022-12-04T01:02:23.397Z,98.31
2022-12-04T01:07:15.155Z,97.93
2022-12-04T01:12:06.989Z,98.21
2022-12-04T01:16:58.876Z,98.24
2022-12-04T01:21:50.867Z,98.24
2022-12-04T01:26:42.669Z,98.16
2022-12-04T01:31:34.608Z,98.58
2022-12-04T01:36:28.600Z,98.87
2022-12-04T01:41:24.843Z,98.64
2022-12-04T01:46:16.593Z,98.81
2022-12-04T01:51:15.402Z,99.46
2022-12-04T01:56:07.965Z,99.10
2022-12-04T02:01:08.221Z,99.12
2022-12-04T02:06:00.682Z,99.05
2022-12-04T02:11:07.535Z,98.84
2022-12-04T02:15:59.176Z,98.78
2022-12-04T02:21:12.807Z,99.11
2022-12-04T02:26:28.490Z,99.33
2022-12-04T02:31:31.047Z,99.44
2022-12-04T02:36:25.840Z,99.19
2022-12-04T02:41:23.427Z,99.48
2022-12-04T02:46:24.325Z,99.83
2022-12-04T02:51:19.640Z,100.00
2022-12-04T02:56:15.792Z,100.00
2022-12-04T03:01:32.346Z,100.00
2022-12-04T03:06:27.987Z,100.00
2022-12-04T03:11:19.807Z,100.00
2022-12-04T03:16:21.168Z,100.00
2022-12-04T03:21:19.441Z,100.00
2022-12-04T03:26:21.353Z,100.00
2022-12-04T03:31:15.384Z,100.00
2022-12-04T03:36:32.669Z,100.00
2022-12-04T03:41:31.446Z,100.00
2022-12-04T03:46:23.106Z,100.00
2022-12-04T03:51:23.612Z,100.00
2022-12-04T03:56:22.154Z,100.00
2022-12-04T04:01:18.232Z,100.00
2022-12-04T04:06:19.686Z,100.00
2022-12-04T04:11:20.258Z,100.00
2022-12-04T04:16:34.988Z,100.00
2022-12-04T04:21:56.074Z,100.00
2022-12-04T04:26:49.536Z,100.00
2022-12-04T04:32:03.663Z,100.00
2022-12-04T04:37:10.164Z,100.00
2022-12-04T04:42:15.277Z,100.00
2022-12-04T04:47:13.114Z,100.00
2022-12-04T04:52:05.069Z,100.00
2022-12-04T04:56:56.979Z,100.00
2022-12-04T05:01:48.966Z,100.00
2022-12-04T05:06:40.813Z,100.00
2022-12-04T05:11:32.742Z,100.00
2022-12-04T05:16:24.607Z,100.00
2022-12-04T05:21:16.605Z,100.00
2022-12-04T05:26:08.626Z,100.00
2022-12-04T05:31:03.074Z,100.00
2022-12-04T05:35:58.734Z,100.00
2022-12-04T05:40:50.390Z,100.00
2022-12-04T05:45:42.131Z,100.00
2022-12-04T05:50:33.856Z,100.00
2022-12-04T05:55:25.586Z,100.00
2022-12-04T06:00:18.216Z,100.00
2022-12-04T06:05:09.962Z,100.00
2022-12-04T06:10:01.760Z,100.00
2022-12-04T06:14:53.527Z,100.00
2022-12-04T06:19:45.154Z,100.00
2022-12-04T06:24:37.013Z,100.00
2022-12-04T06:29:28.745Z,100.00
2022-12-04T06:34:20.601Z,100.00
2022-12-04T06:39:18.354Z,100.00
2022-12-04T06:44:10.487Z,100.00
2022-12-04T06:49:02.829Z,100.00
2022-12-04T06:53:54.942Z,100.00
2022-12-04T06:58:51.913Z,100.00
2022-12-04T07:03:49.514Z,100.00
2022-12-04T07:08:44.797Z,100.00
2022-12-04T07:13:36.849Z,100.00
2022-12-04T07:18:29.947Z,100.00
2022-12-04T07:23:21.663Z,100.00
2022-12-04T07:28:13.418Z,100.00
2022-12-04T07:33:05.316Z,100.00
2022-12-04T07:37:57.283Z,100.00
2022-12-04T07:42:49.108Z,100.00
2022-12-04T07:47:40.939Z,100.00
2022-12-04T07:52:37.462Z,100.00
2022-12-04T07:57:29.251Z,100.00
2022-12-04T08:02:21.003Z,100.00
2022-12-04T08:07:12.740Z,100.00
2022-12-04T08:12:04.532Z,100.00
2022-12-04T08:16:56.378Z,100.00
2022-12-04T08:21:48.211Z,100.00
2022-12-04T08:26:40.031Z,100.00
2022-12-04T08:31:33.939Z,100.00
2022-12-04T08:36:26.774Z,100.00
2022-12-04T08:41:21.582Z,100.00
2022-12-04T08:46:16.318Z,100.00
2022-12-04T08:51:12.599Z,100.00
2022-12-04T08:56:05.096Z,100.00
2022-12-04T09:00:57.080Z,100.00
2022-12-04T09:05:49.086Z,100.00
2022-12-04T09:10:41.246Z,100.00
2022-12-04T09:15:33.425Z,100.00
2022-12-04T09:20:25.745Z,100.00
2022-12-04T09:25:17.508Z,100.00
2022-12-04T09:30:11.436Z,100.00
2022-12-04T09:35:04.119Z,98.13
2022-12-04T09:39:56.023Z,97.76
2022-12-04T09:44:59.130Z,97.55
2022-12-04T09:49:57.137Z,96.90
2022-12-04T09:54:51.062Z,97.56
2022-12-04T09:59:44.564Z,96.75
2022-12-04T10:04:36.484Z,96.45
2022-12-04T10:09:39.263Z,96.37
2022-12-04T10:14:34.153Z,95.73
2022-12-04T10:19:28.800Z,94.64
2022-12-04T10:24:59.334Z,95.07
2022-12-04T10:29:59.433Z,94.84
2022-12-04T10:34:55.235Z,95.13
2022-12-04T10:39:55.178Z,95.55
2022-12-04T10:44:47.263Z,95.72
2022-12-04T10:49:39.024Z,95.82
2022-12-04T10:54:55.410Z,94.91
2022-12-04T10:59:55.779Z,95.42
2022-12-04T11:05:01.916Z,96.10
2022-12-04T11:09:59.572Z,96.88
2022-12-04T11:15:06.442Z,96.67
2022-12-04T11:20:26.439Z,96.71
2022-12-04T11:25:20.167Z,97.18
2022-12-04T11:30:16.582Z,96.53
2022-12-04T11:35:29.664Z,96.73
2022-12-04T11:40:22.179Z,96.47
2022-12-04T11:45:22.145Z,96.12
2022-12-04T11:50:30.767Z,96.34
2022-12-04T11:55:29.044Z,96.35
2022-12-04T12:00:23.195Z,95.60
2022-12-04T12:05:27.624Z,95.77
2022-12-04T12:10:25.575Z,95.36
2022-12-04T12:15:20.114Z,95.43
2022-12-04T12:20:22.672Z,94.98
2022-12-04T12:25:43.414Z,92.67
2022-12-04T12:30:58.124Z,90.94
2022-12-04T12:36:03.638Z,92.20
2022-12-04T12:41:04.531Z,92.32
2022-12-04T12:46:06.759Z,92.29
2022-12-04T12:51:29.618Z,92.16
2022-12-04T12:56:31.669Z,92.69
2022-12-04T13:01:29.646Z,92.82
2022-12-04T13:06:29.759Z,93.08
2022-12-04T13:11:25.732Z,93.10
2022-12-04T13:16:58.845Z,93.37
2022-12-04T13:21:53.513Z,92.84
2022-12-04T13:27:03.728Z,93.43
2022-12-04T13:32:04.735Z,92.29
2022-12-04T13:37:29.439Z,91.72
2022-12-04T13:42:25.432Z,91.58
2022-12-04T13:47:32.046Z,91.21
2022-12-04T13:52:36.784Z,91.30
2022-12-04T13:57:28.547Z,91.68
2022-12-04T14:02:32.319Z,91.83
2022-12-04T14:07:37.467Z,92.50
2022-12-04T14:12:40.583Z,93.27
2022-12-04T14:17:35.831Z,93.89
2022-12-04T14:22:42.969Z,93.89
2022-12-04T14:27:44.494Z,93.89
2022-12-04T14:32:36.271Z,94.39
2022-12-04T14:37:36.111Z,93.91
2022-12-04T14:42:33.996Z,94.03
2022-12-04T14:47:33.936Z,94.35
2022-12-04T14:52:36.511Z,94.43
2022-12-04T14:57:31.168Z,94.80
2022-12-04T15:02:38.816Z,94.38
2022-12-04T15:07:32.307Z,94.94
2022-12-04T15:12:34.483Z,94.86
2022-12-04T15:17:26.363Z,94.97
2022-12-04T15:22:23.244Z,95.05
2022-12-04T15:27:18.999Z,95.20
2022-12-04T15:32:12.370Z,95.04
2022-12-04T15:37:16.214Z,94.93
2022-12-04T15:42:26.041Z,94.96
2022-12-04T15:47:25.303Z,95.10
2022-12-04T15:52:20.155Z,94.42
2022-12-04T15:57:47.552Z,94.56
2022-12-04T16:02:42.577Z,95.24
2022-12-04T16:07:34.309Z,95.44
2022-12-04T16:12:28.637Z,95.11
2022-12-04T16:17:21.675Z,95.63
2022-12-04T16:22:20.098Z,95.04
2022-12-04T16:27:16.098Z,95.46
2022-12-04T16:32:15.850Z,96.33
2022-12-04T16:37:15.955Z,96.46
2022-12-04T16:42:16.150Z,96.15
2022-12-04T16:47:10.964Z,97.28
2022-12-04T16:52:02.787Z,97.29
2022-12-04T16:56:54.443Z,97.64
2022-12-04T17:01:48.932Z,97.53
2022-12-04T17:06:40.672Z,97.29
2022-12-04T17:11:32.578Z,97.02
2022-12-04T17:16:25.219Z,97.65
2022-12-04T17:21:17.578Z,98.15
2022-12-04T17:26:12.187Z,99.35
2022-12-04T17:31:06.278Z,100.00
2022-12-04T17:36:00.444Z,100.00
2022-12-04T17:41:02.769Z,100.00
2022-12-04T17:45:54.476Z,100.00
2022-12-04T17:50:46.181Z,100.00
2022-12-04T17:55:37.827Z,100.00
2022-12-04T18:00:29.671Z,100.00
2022-12-04T18:05:21.853Z,100.00
2022-12-04T18:10:13.516Z,100.00
2022-12-04T18:15:06.007Z,100.00
2022-12-04T18:20:02.592Z,100.00
2022-12-04T18:24:56.213Z,100.00
2022-12-04T18:29:47.862Z,100.00
2022-12-04T18:34:39.792Z,100.00
2022-12-04T18:39:31.511Z,100.00
2022-12-04T18:44:23.933Z,100.00
2022-12-04T18:49:15.737Z,100.00
2022-12-04T18:54:13.267Z,100.00
2022-12-04T18:59:11.652Z,99.75
2022-12-04T19:04:04.847Z,99.24
2022-12-04T19:08:59.883Z,99.86
2022-12-04T19:13:51.604Z,99.26
2022-12-04T19:18:47.771Z,98.93
2022-12-04T19:23:39.814Z,98.39
2022-12-04T19:28:31.653Z,98.17
2022-12-04T19:33:24.911Z,98.12
2022-12-04T19:38:16.767Z,97.74
2022-12-04T19:43:08.604Z,97.14
2022-12-04T19:48:00.433Z,96.78
2022-12-04T19:52:52.231Z,96.35
2022-12-04T19:57:43.891Z,96.58
2022-12-04T20:02:35.698Z,95.92
2022-12-04T20:07:27.467Z,95.73
2022-12-04T20:12:19.305Z,95.65
2022-12-04T20:17:11.189Z,95.68
2022-12-04T20:22:02.863Z,95.51
2022-12-04T20:26:54.528Z,95.30
2022-12-04T20:31:46.836Z,95.12
2022-12-04T20:36:41.368Z,95.57
2022-12-04T20:41:33.627Z,96.02
2022-12-04T20:46:33.089Z,95.82
2022-12-04T20:51:28.017Z,96.02
2022-12-04T20:56:21.893Z,96.61
2022-12-04T21:01:16.858Z,96.31
2022-12-04T21:06:19.271Z,96.46
2022-12-04T21:11:11.014Z,96.26
2022-12-04T21:16:03.548Z,96.71
2022-12-04T21:20:56.766Z,97.33
2022-12-04T21:25:48.432Z,97.21
2022-12-04T21:30:40.147Z,97.66
2022-12-04T21:35:31.924Z,97.95
2022-12-04T21:40:23.650Z,97.74
2022-12-04T21:45:15.539Z,98.25
2022-12-04T21:50:07.971Z,98.78
2022-12-04T21:54:59.781Z,99.21
2022-12-04T21:59:52.503Z,99.87
2022-12-04T22:04:44.284Z,99.58
2022-12-04T22:09:37.966Z,100.00
2022-12-04T22:14:29.647Z,100.00
2022-12-04T22:19:21.824Z,100.00
2022-12-04T22:24:13.619Z,100.00
2022-12-04T22:29:33.740Z,100.00
2022-12-04T22:34:17.888Z,100.00
2022-12-04T22:39:10.751Z,100.00
2022-12-04T22:44:03.176Z,100.00
2022-12-04T22:48:54.890Z,100.00
2022-12-04T22:53:54.759Z,100.00
2022-12-04T22:58:46.565Z,100.00
2022-12-04T23:03:38.343Z,100.00
2022-12-04T23:08:30.190Z,100.00
2022-12-04T23:13:21.956Z,100.00
2022-12-04T23:18:13.688Z,100.00
2022-12-04T23:23:05.466Z,100.00
2022-12-04T23:27:57.235Z,100.00
2022-12-04T23:32:48.849Z,100.00
2022-12-04T23:37:40.732Z,100.00
2022-12-04T23:42:33.566Z,100.00
2022-12-04T23:47:25.496Z,100.00
2022-12-04T23:52:17.270Z,100.00
2022-12-04T23:57:09.017Z,100.00
